AirNav   Everest Fuels
 
 1146 users online  

5Y5 David's Landing Airport
St Clair, Michigan, USA

GOING TO ST CLAIR?


FAA INFORMATION EFFECTIVE 16 JULY 2020

Location

FAA Identifier: 5Y5
Lat/Long: 42-47-52.0000N 082-32-11.3000W
42-47.866667N 082-32.188333W
42.7977778,-82.5364722
(estimated)
Elevation: 615 ft. / 187 m (estimated)
Variation: 06W (1985)
From city: 3 miles SW of ST CLAIR, MI
Time zone: UTC -4 (UTC -5 during Standard Time)
Zip code: 48054

Airport Operations

Airport use: Open to the public
Activation date: 07/1965
Control tower: no
ARTCC: CLEVELAND CENTER
FSS: LANSING FLIGHT SERVICE STATION
NOTAMs facility: LAN (NOTAM-D service available)
Attendance: IREG
Wind indicator: yes
Segmented circle: no

Airport Communications

CTAF: 122.9
WX AWOS-3 at PHN (7 nm N): 118.375 (810-364-7787)

Nearby radio navigation aids

NDB name  Hdg/Dist  Freq  Var  ID
PHURN143/3.833207WPH .--. ....

Airport Services

Parking: tiedowns
Airframe service: NONE
Powerplant service: NONE

Runway Information

Runway 18/36

Dimensions: 2500 x 100 ft. / 762 x 30 m
Surface: turf, in good condition
Runway edge markings: RY 18/36 & DSPLCD THLD MKD WITH 3 FT YELLOW CONES.
Operational restrictions: SOFT IN SPRING.
RUNWAY 18  RUNWAY 36
Latitude: 42-48.072833N42-47.661500N
Longitude: 082-32.199833W082-32.177500W
Elevation: 615.0 ft.615.0 ft.
Traffic pattern: leftleft
Runway heading: 184 magnetic, 178 true004 magnetic, 358 true
Displaced threshold: 1100 ft.no
Obstructions: 43 ft. tree, 177 ft. from runway, 50 ft. left of centerline, 4:1 slope to clear
APCH RATIO 20:1 OVER +66 FT TREES, 358 FT DSTC.
50 ft. trees, 119 ft. right of centerline

Airport Ownership and Management from official FAA records

Ownership: Privately-owned
Owner: DAVE SHIREY
5599 ST CLAIR HIGHWAY
CHINA TOWNSHIP, MI 48054
Phone 586-506-5889
Manager: DAVE SHIREY
5599 ST CLAIR HIGHWAY
CHINA TOWNSHIP, MI 48054
Phone 586-506-5889

Airport Operational Statistics

Aircraft based on the field: 4
Single engine airplanes: 2
Helicopters: 1
Ultralights: 1
    
Aircraft operations: 150/year *
50% transient general aviation
50% local general aviation
* for 12-month period ending 31 December 2018

Additional Remarks

ARPT CLSD DEC-MAR & WHEN SNOW COVERED.
100 FT POWERLINE 5/8 MILE S OF RY 36 .
-4 FT DITCH 10 FT E & W OF RY.
FOR CD CTC CLEVELAND ARTCC AT 440-774-0490.
BIRDS ON AND INVOF RWY.

Instrument Procedures

There are no published instrument procedures at 5Y5.

Some nearby airports with instrument procedures:

KPHN - St Clair County International Airport (7 nm N)
57D - Ray Community Airport (16 nm W)
KMTC - Selfridge Air National Guard Base (17 nm SW)
D98 - Romeo State Airport (19 nm W)
KDET - Coleman A Young Municipal Airport (31 nm SW)
 
Loc | Ops | Rwys | IFR | FBO | Links
Com | Nav | Svcs | Stats | Notes
Area around 5Y5 (David's Landing Airport)
 
Road maps at: MapQuest Bing Google
 
Aerial photo
No photo
 
Sectional chart

 
Airport distance calculator
Flying to David's Landing Airport? Find the distance to fly.

From to 5Y5

Sunrise and sunset
Times for 08-Aug-2020
 Local
(UTC-4)
 Zulu
(UTC)
Morning civil twilight06:0010:00
Sunrise06:3110:31
Sunset20:4000:40
Evening civil twilight21:1101:11

Current date and time
Zulu (UTC)  08-Aug-2020 18:01:43
Local (UTC-4)  08-Aug-2020 14:01:43
 
METAR
KPHN 
7nm N 
081755Z AUTO 28003KT 10SM CLR 26/13 A3016 RMK AO2
CYZR 
16nm NE 
081700Z AUTO VRB07KT 9SM CLR 27/15 A3018 RMK SLP219 DENSITY ALT 1700FT
KMTC 
16nm SW 
081656Z 05004KT 10SM SCT060 SCT250 27/17 A3018 RMK AO2A SLP222 T02650167 $
TAF
CYZR 
16nm NE 
081338Z 0814/0902 VRB03KT P6SM SKC BECMG 0816/0818 23007KT FM082100 20010G20KT P6SM FEW150 RMK FCST BASED ON AUTO OBS. NXT FCST BY 082000Z
KMTC 
16nm SW 
081700Z 0817/0923 22009KT 9999 SCT065 QNH3007INS BECMG 0912/0913 23009KT 8000 -SHRA BKN020 BKN080 QNH2998INS TX30/0917Z TN19/0911Z
NOTAMs
Click for the latest NOTAMs
NOTAMs are issued by the DoD/FAA and will open in a separate window not controlled by AirNav.

 

 
 

Would you like to see your business listed on this page?

 If your business provides an interesting product or service to pilots, flight crews, aircraft, or users of the David's Landing Airport, you should consider listing it here.  To start the listing process, click on the button below
 
Add a business
 

Other Pages about David's Landing Airport

Page from the Michigan Airport Directory (PDF)
 
Update a link
 
Copyright © AirNav, LLC. All rights reserved. Privacy Policy  Contact